WON1885 WAHS-WIHH
Flight info
| Callsign | WON1885 |
|---|---|
| Flight time | 1h 3m |
| Altitude | 14000 |
| Route | KIDET W16 IMU |
| Aircraft | AT76/M-SDFGIRY/S |
Departure
| Time | 2026-05-08 11:02 |
|---|---|
| Airport | Jenderal Ahmad Yani Airport (WAHS) |
Arrival
| Time | 2026-05-08 12:06 |
|---|---|
| Airport | Halim Perdanakusuma International Airport (WIHH) |
| Time | Latitude | Longitude | Altitude | Speed | Heading |
|---|---|---|---|---|---|
| 2026-05-08 10:39 | -6.96740 | 110.37487 | 15 ft | 0 kts | 40° |
| 2026-05-08 10:50 | -6.96741 | 110.37486 | 15 ft | 2 kts | 40° |
| 2026-05-08 10:51 | -6.96751 | 110.37478 | -12 ft | 2 kts | 41° |
| 2026-05-08 10:51 | -6.96761 | 110.37469 | 23 ft | 2 kts | 41° |
| 2026-05-08 10:51 | -6.96772 | 110.37460 | 20 ft | 2 kts | 41° |
| 2026-05-08 10:51 | -6.96782 | 110.37451 | 18 ft | 2 kts | 38° |
| 2026-05-08 10:52 | -6.96791 | 110.37444 | 15 ft | 1 kts | 24° |
| 2026-05-08 10:52 | -6.96797 | 110.37442 | 15 ft | 1 kts | 358° |
| 2026-05-08 10:52 | -6.96802 | 110.37442 | 16 ft | 1 kts | 330° |
| 2026-05-08 10:52 | -6.96807 | 110.37445 | 16 ft | 1 kts | 317° |
| 2026-05-08 10:53 | -6.96810 | 110.37449 | 17 ft | 1 kts | 312° |
| 2026-05-08 10:53 | -6.96812 | 110.37450 | 17 ft | 0 kts | 311° |
| 2026-05-08 10:54 | -6.96793 | 110.37429 | 15 ft | 7 kts | 310° |
| 2026-05-08 10:54 | -6.96755 | 110.37380 | 15 ft | 10 kts | 312° |
| 2026-05-08 10:54 | -6.96703 | 110.37321 | 15 ft | 12 kts | 310° |
| 2026-05-08 10:55 | -6.96645 | 110.37252 | 15 ft | 13 kts | 309° |
| 2026-05-08 10:55 | -6.96624 | 110.37225 | 15 ft | 0 kts | 309° |
| 2026-05-08 10:55 | -6.96614 | 110.37210 | 15 ft | 3 kts | 285° |
| 2026-05-08 10:55 | -6.96629 | 110.37187 | 15 ft | 4 kts | 221° |
| 2026-05-08 10:56 | -6.96658 | 110.37162 | 14 ft | 7 kts | 221° |
| 2026-05-08 10:56 | -6.96696 | 110.37129 | 13 ft | 8 kts | 219° |
| 2026-05-08 10:56 | -6.96737 | 110.37096 | 10 ft | 0 kts | 220° |
| 2026-05-08 10:56 | -6.96737 | 110.37095 | 10 ft | 0 kts | 220° |
| 2026-05-08 10:58 | -6.96759 | 110.37077 | 7 ft | 8 kts | 219° |
| 2026-05-08 10:58 | -6.96804 | 110.37021 | 3 ft | 10 kts | 283° |
| 2026-05-08 10:59 | -6.96757 | 110.36964 | 3 ft | 12 kts | 309° |
| 2026-05-08 10:59 | -6.96703 | 110.36893 | 2 ft | 14 kts | 307° |
| 2026-05-08 10:59 | -6.96633 | 110.36814 | 3 ft | 19 kts | 311° |
| 2026-05-08 10:59 | -6.96535 | 110.36692 | 2 ft | 26 kts | 312° |
| 2026-05-08 11:00 | -6.96419 | 110.36565 | 1 ft | 23 kts | 312° |
| 2026-05-08 11:00 | -6.96325 | 110.36453 | 1 ft | 20 kts | 310° |
| 2026-05-08 11:00 | -6.96284 | 110.36370 | 1 ft | 11 kts | 281° |
| 2026-05-08 11:00 | -6.96238 | 110.36351 | 1 ft | 5 kts | 76° |
| 2026-05-08 11:01 | -6.96252 | 110.36368 | 0 ft | 7 kts | 133° |
| 2026-05-08 11:01 | -6.96253 | 110.36369 | 1 ft | 0 kts | 133° |
| 2026-05-08 11:01 | -6.96306 | 110.36429 | 1 ft | 39 kts | 130° |
| 2026-05-08 11:02 | -6.96618 | 110.36799 | 3 ft | 98 kts | 130° |
| 2026-05-08 11:02 | -6.97690 | 110.38229 | 600 ft | 137 kts | 109° |
| 2026-05-08 11:02 | -6.97931 | 110.39153 | 1166 ft | 137 kts | 111° |
| 2026-05-08 11:03 | -6.98215 | 110.39741 | 1309 ft | 148 kts | 116° |
| 2026-05-08 11:03 | -6.98932 | 110.41101 | 1385 ft | 178 kts | 117° |
| 2026-05-08 11:03 | -6.99317 | 110.41818 | 1743 ft | 174 kts | 118° |
| 2026-05-08 11:03 | -6.99733 | 110.43351 | 2255 ft | 175 kts | 76° |
| 2026-05-08 11:04 | -6.99339 | 110.44052 | 2507 ft | 178 kts | 46° |
| 2026-05-08 11:04 | -6.98185 | 110.44473 | 2838 ft | 184 kts | 358° |
| 2026-05-08 11:04 | -6.97028 | 110.43921 | 3141 ft | 191 kts | 313° |
| 2026-05-08 11:04 | -6.96275 | 110.42814 | 3427 ft | 193 kts | 303° |
| 2026-05-08 11:05 | -6.95607 | 110.41662 | 3755 ft | 193 kts | 293° |
| 2026-05-08 11:05 | -6.95555 | 110.40339 | 4044 ft | 193 kts | 247° |
| 2026-05-08 11:05 | -6.96371 | 110.39325 | 4316 ft | 187 kts | 217° |
| 2026-05-08 11:05 | -6.97330 | 110.38418 | 4616 ft | 190 kts | 227° |
| 2026-05-08 11:06 | -6.97794 | 110.37184 | 4886 ft | 197 kts | 272° |
| 2026-05-08 11:06 | -6.97265 | 110.35937 | 5190 ft | 198 kts | 314° |
| 2026-05-08 11:06 | -6.96279 | 110.34969 | 5492 ft | 199 kts | 316° |
| 2026-05-08 11:06 | -6.95295 | 110.33982 | 5813 ft | 199 kts | 315° |
| 2026-05-08 11:07 | -6.94365 | 110.32946 | 6127 ft | 200 kts | 311° |
| 2026-05-08 11:07 | -6.93508 | 110.31837 | 6426 ft | 201 kts | 306° |
| 2026-05-08 11:07 | -6.92721 | 110.30665 | 6722 ft | 202 kts | 303° |
| 2026-05-08 11:07 | -6.91971 | 110.29468 | 7021 ft | 202 kts | 303° |
| 2026-05-08 11:08 | -6.91221 | 110.28269 | 7337 ft | 202 kts | 303° |
| 2026-05-08 11:08 | -6.90476 | 110.27065 | 7629 ft | 203 kts | 303° |
| 2026-05-08 11:08 | -6.89733 | 110.25858 | 7917 ft | 203 kts | 303° |
| 2026-05-08 11:08 | -6.88976 | 110.24654 | 8201 ft | 204 kts | 304° |
| 2026-05-08 11:09 | -6.88210 | 110.23454 | 8500 ft | 204 kts | 304° |
| 2026-05-08 11:09 | -6.87447 | 110.22252 | 8782 ft | 204 kts | 305° |
| 2026-05-08 11:09 | -6.86679 | 110.21049 | 9072 ft | 204 kts | 305° |
| 2026-05-08 11:09 | -6.85919 | 110.19864 | 9340 ft | 204 kts | 305° |
| 2026-05-08 11:10 | -6.85150 | 110.18663 | 9609 ft | 205 kts | 305° |
| 2026-05-08 11:10 | -6.84380 | 110.17458 | 9853 ft | 205 kts | 305° |
| 2026-05-08 11:10 | -6.83604 | 110.16245 | 10076 ft | 206 kts | 305° |
| 2026-05-08 11:10 | -6.82825 | 110.15030 | 10297 ft | 207 kts | 305° |
| 2026-05-08 11:11 | -6.82038 | 110.13807 | 10531 ft | 209 kts | 305° |
| 2026-05-08 11:11 | -6.81249 | 110.12576 | 10752 ft | 210 kts | 305° |
| 2026-05-08 11:11 | -6.80457 | 110.11339 | 10972 ft | 211 kts | 305° |
| 2026-05-08 11:11 | -6.79660 | 110.10097 | 11180 ft | 212 kts | 304° |
| 2026-05-08 11:12 | -6.78857 | 110.08846 | 11395 ft | 213 kts | 304° |
| 2026-05-08 11:12 | -6.78052 | 110.07591 | 11656 ft | 214 kts | 304° |
| 2026-05-08 11:12 | -6.77249 | 110.06324 | 11955 ft | 215 kts | 304° |
| 2026-05-08 11:12 | -6.76445 | 110.05047 | 12258 ft | 217 kts | 303° |
| 2026-05-08 11:13 | -6.75633 | 110.03766 | 12558 ft | 218 kts | 304° |
| 2026-05-08 11:13 | -6.74808 | 110.02479 | 12853 ft | 220 kts | 304° |
| 2026-05-08 11:13 | -6.73985 | 110.01188 | 13355 ft | 216 kts | 303° |
| 2026-05-08 11:13 | -6.73144 | 109.99872 | 13567 ft | 235 kts | 303° |
| 2026-05-08 11:14 | -6.72219 | 109.98431 | 13638 ft | 254 kts | 303° |
| 2026-05-08 11:14 | -6.71239 | 109.96906 | 13862 ft | 262 kts | 303° |
| 2026-05-08 11:14 | -6.70239 | 109.95368 | 14196 ft | 263 kts | 303° |
| 2026-05-08 11:14 | -6.69238 | 109.93822 | 14520 ft | 265 kts | 303° |
| 2026-05-08 11:15 | -6.68236 | 109.92261 | 14850 ft | 266 kts | 303° |
| 2026-05-08 11:15 | -6.67237 | 109.90694 | 15164 ft | 267 kts | 302° |
| 2026-05-08 11:15 | -6.66235 | 109.89112 | 15482 ft | 268 kts | 302° |
| 2026-05-08 11:15 | -6.65248 | 109.87533 | 15683 ft | 274 kts | 302° |
| 2026-05-08 11:16 | -6.64195 | 109.85870 | 15753 ft | 283 kts | 302° |
| 2026-05-08 11:16 | -6.63145 | 109.84226 | 15783 ft | 282 kts | 302° |
| 2026-05-08 11:16 | -6.62084 | 109.82563 | 15801 ft | 282 kts | 302° |
| 2026-05-08 11:16 | -6.61024 | 109.80905 | 15813 ft | 282 kts | 302° |
| 2026-05-08 11:17 | -6.59961 | 109.79243 | 15814 ft | 282 kts | 302° |
| 2026-05-08 11:17 | -6.58898 | 109.77581 | 15819 ft | 283 kts | 302° |
| 2026-05-08 11:17 | -6.57827 | 109.75921 | 15818 ft | 283 kts | 302° |
| 2026-05-08 11:17 | -6.56760 | 109.74258 | 15820 ft | 283 kts | 302° |
| 2026-05-08 11:18 | -6.55693 | 109.72587 | 15818 ft | 283 kts | 302° |
| 2026-05-08 11:18 | -6.54624 | 109.70918 | 15820 ft | 284 kts | 302° |
| 2026-05-08 11:18 | -6.53557 | 109.69251 | 15820 ft | 284 kts | 302° |
| 2026-05-08 11:18 | -6.52485 | 109.67577 | 15825 ft | 284 kts | 302° |
| 2026-05-08 11:19 | -6.51414 | 109.65906 | 15822 ft | 284 kts | 302° |
| 2026-05-08 11:19 | -6.50344 | 109.64236 | 15820 ft | 284 kts | 302° |
| 2026-05-08 11:19 | -6.49286 | 109.62584 | 15823 ft | 284 kts | 302° |
| 2026-05-08 11:19 | -6.48202 | 109.60892 | 15824 ft | 284 kts | 302° |
| 2026-05-08 11:20 | -6.47143 | 109.59240 | 15825 ft | 285 kts | 302° |
| 2026-05-08 11:20 | -6.46071 | 109.57566 | 15825 ft | 285 kts | 302° |
| 2026-05-08 11:20 | -6.44996 | 109.55889 | 15825 ft | 285 kts | 302° |
| 2026-05-08 11:20 | -6.43923 | 109.54214 | 15823 ft | 285 kts | 302° |
| 2026-05-08 11:21 | -6.42849 | 109.52539 | 15823 ft | 285 kts | 302° |
| 2026-05-08 11:21 | -6.41774 | 109.50861 | 15823 ft | 285 kts | 302° |
| 2026-05-08 11:21 | -6.40697 | 109.49183 | 15822 ft | 285 kts | 302° |
| 2026-05-08 11:21 | -6.39620 | 109.47505 | 15825 ft | 285 kts | 302° |
| 2026-05-08 11:22 | -6.38546 | 109.45831 | 15824 ft | 285 kts | 302° |
| 2026-05-08 11:22 | -6.37472 | 109.44152 | 15824 ft | 285 kts | 302° |
| 2026-05-08 11:22 | -6.36393 | 109.42473 | 15825 ft | 285 kts | 303° |
| 2026-05-08 11:22 | -6.35315 | 109.40793 | 15826 ft | 285 kts | 302° |
| 2026-05-08 11:23 | -6.34242 | 109.39119 | 15827 ft | 285 kts | 302° |
| 2026-05-08 11:23 | -6.33166 | 109.37439 | 15825 ft | 285 kts | 302° |
| 2026-05-08 11:23 | -6.32087 | 109.35760 | 15828 ft | 285 kts | 302° |
| 2026-05-08 11:23 | -6.31026 | 109.34103 | 15824 ft | 285 kts | 302° |
| 2026-05-08 11:24 | -6.30171 | 109.32329 | 15826 ft | 281 kts | 282° |
| 2026-05-08 11:24 | -6.29953 | 109.30390 | 15827 ft | 280 kts | 270° |
| 2026-05-08 11:24 | -6.29997 | 109.28437 | 15827 ft | 279 kts | 266° |
| 2026-05-08 11:24 | -6.30089 | 109.26482 | 15829 ft | 280 kts | 266° |
| 2026-05-08 11:25 | -6.30152 | 109.24524 | 15827 ft | 281 kts | 268° |
| 2026-05-08 11:25 | -6.30165 | 109.22554 | 15826 ft | 282 kts | 269° |
| 2026-05-08 11:25 | -6.30165 | 109.20584 | 15826 ft | 282 kts | 269° |
| 2026-05-08 11:25 | -6.30170 | 109.18613 | 15826 ft | 282 kts | 269° |
| 2026-05-08 11:26 | -6.30181 | 109.16636 | 15827 ft | 283 kts | 269° |
| 2026-05-08 11:26 | -6.30188 | 109.14661 | 15827 ft | 283 kts | 269° |
| 2026-05-08 11:26 | -6.30195 | 109.12684 | 15827 ft | 283 kts | 269° |
| 2026-05-08 11:26 | -6.30204 | 109.10706 | 15829 ft | 283 kts | 269° |
| 2026-05-08 11:27 | -6.30212 | 109.08753 | 15826 ft | 283 kts | 269° |
| 2026-05-08 11:27 | -6.30221 | 109.06774 | 15832 ft | 283 kts | 268° |
| 2026-05-08 11:27 | -6.30228 | 109.04800 | 15828 ft | 282 kts | 269° |
| 2026-05-08 11:27 | -6.30233 | 109.02844 | 15830 ft | 278 kts | 268° |
| 2026-05-08 11:28 | -6.30243 | 109.00916 | 15829 ft | 274 kts | 268° |
| 2026-05-08 11:28 | -6.30251 | 108.99006 | 15827 ft | 272 kts | 268° |
| 2026-05-08 11:28 | -6.30258 | 108.97115 | 15829 ft | 270 kts | 269° |
| 2026-05-08 11:28 | -6.30265 | 108.95232 | 15826 ft | 268 kts | 268° |
| 2026-05-08 11:29 | -6.30272 | 108.93365 | 15828 ft | 266 kts | 268° |
| 2026-05-08 11:29 | -6.30279 | 108.91509 | 15831 ft | 265 kts | 268° |
| 2026-05-08 11:29 | -6.30285 | 108.89655 | 15828 ft | 264 kts | 269° |
| 2026-05-08 11:29 | -6.30291 | 108.87807 | 15832 ft | 264 kts | 268° |
| 2026-05-08 11:30 | -6.30297 | 108.85990 | 15832 ft | 263 kts | 268° |
| 2026-05-08 11:30 | -6.30304 | 108.84146 | 15831 ft | 263 kts | 268° |
| 2026-05-08 11:30 | -6.30310 | 108.82312 | 15834 ft | 262 kts | 268° |
| 2026-05-08 11:30 | -6.30318 | 108.80478 | 15831 ft | 262 kts | 268° |
| 2026-05-08 11:31 | -6.30324 | 108.78643 | 15830 ft | 262 kts | 268° |
| 2026-05-08 11:31 | -6.30331 | 108.76810 | 15833 ft | 262 kts | 268° |
| 2026-05-08 11:31 | -6.30337 | 108.74978 | 15833 ft | 262 kts | 268° |
| 2026-05-08 11:31 | -6.30345 | 108.73150 | 15831 ft | 262 kts | 268° |
| 2026-05-08 11:32 | -6.30342 | 108.71317 | 15831 ft | 262 kts | 268° |
| 2026-05-08 11:32 | -6.30343 | 108.69506 | 15831 ft | 262 kts | 268° |
| 2026-05-08 11:32 | -6.30349 | 108.67675 | 15833 ft | 262 kts | 268° |
| 2026-05-08 11:32 | -6.30357 | 108.65843 | 15832 ft | 262 kts | 268° |
| 2026-05-08 11:33 | -6.30363 | 108.64009 | 15834 ft | 263 kts | 268° |
| 2026-05-08 11:33 | -6.30368 | 108.62170 | 15832 ft | 263 kts | 268° |
| 2026-05-08 11:33 | -6.30373 | 108.60329 | 15831 ft | 263 kts | 268° |
| 2026-05-08 11:33 | -6.30379 | 108.58490 | 15831 ft | 263 kts | 268° |
| 2026-05-08 11:34 | -6.30385 | 108.56650 | 15832 ft | 263 kts | 268° |
| 2026-05-08 11:34 | -6.30394 | 108.54813 | 15831 ft | 263 kts | 268° |
| 2026-05-08 11:34 | -6.30400 | 108.52974 | 15831 ft | 263 kts | 268° |
| 2026-05-08 11:34 | -6.30406 | 108.51153 | 15834 ft | 263 kts | 268° |
| 2026-05-08 11:35 | -6.30413 | 108.49316 | 15833 ft | 263 kts | 268° |
| 2026-05-08 11:35 | -6.30417 | 108.47474 | 15835 ft | 263 kts | 268° |
| 2026-05-08 11:35 | -6.30422 | 108.45635 | 15838 ft | 263 kts | 268° |
| 2026-05-08 11:35 | -6.30426 | 108.43796 | 15835 ft | 263 kts | 268° |
| 2026-05-08 11:36 | -6.30430 | 108.41954 | 15835 ft | 264 kts | 268° |
| 2026-05-08 11:36 | -6.30435 | 108.40109 | 15835 ft | 264 kts | 268° |
| 2026-05-08 11:36 | -6.30441 | 108.38265 | 15835 ft | 264 kts | 268° |
| 2026-05-08 11:36 | -6.30447 | 108.36418 | 15837 ft | 264 kts | 268° |
| 2026-05-08 11:37 | -6.30453 | 108.34566 | 15840 ft | 265 kts | 268° |
| 2026-05-08 11:37 | -6.30318 | 108.32725 | 15839 ft | 265 kts | 281° |
| 2026-05-08 11:37 | -6.29832 | 108.30933 | 15833 ft | 267 kts | 286° |
| 2026-05-08 11:37 | -6.29288 | 108.29173 | 15827 ft | 267 kts | 286° |
| 2026-05-08 11:38 | -6.28762 | 108.27385 | 15836 ft | 267 kts | 284° |
| 2026-05-08 11:38 | -6.28293 | 108.25582 | 15831 ft | 267 kts | 283° |
| 2026-05-08 11:38 | -6.27852 | 108.23773 | 15842 ft | 267 kts | 283° |
| 2026-05-08 11:38 | -6.27401 | 108.21956 | 15836 ft | 268 kts | 283° |
| 2026-05-08 11:39 | -6.26947 | 108.20139 | 15832 ft | 268 kts | 283° |
| 2026-05-08 11:39 | -6.26493 | 108.18328 | 15834 ft | 267 kts | 283° |
| 2026-05-08 11:39 | -6.26040 | 108.16516 | 15835 ft | 267 kts | 283° |
| 2026-05-08 11:39 | -6.25587 | 108.14705 | 15836 ft | 267 kts | 283° |
| 2026-05-08 11:40 | -6.25133 | 108.12895 | 15838 ft | 267 kts | 283° |
| 2026-05-08 11:40 | -6.24677 | 108.11082 | 15837 ft | 267 kts | 283° |
| 2026-05-08 11:40 | -6.24225 | 108.09274 | 15837 ft | 267 kts | 283° |
| 2026-05-08 11:40 | -6.23774 | 108.07464 | 15838 ft | 267 kts | 283° |
| 2026-05-08 11:41 | -6.23322 | 108.05660 | 15839 ft | 267 kts | 283° |
| 2026-05-08 11:41 | -6.22872 | 108.03867 | 15838 ft | 267 kts | 283° |
| 2026-05-08 11:41 | -6.22420 | 108.02059 | 15839 ft | 267 kts | 283° |
| 2026-05-08 11:41 | -6.21966 | 108.00249 | 15837 ft | 267 kts | 283° |
| 2026-05-08 11:42 | -6.21509 | 107.98440 | 15836 ft | 267 kts | 283° |
| 2026-05-08 11:42 | -6.21095 | 107.96626 | 15837 ft | 265 kts | 276° |
| 2026-05-08 11:42 | -6.21035 | 107.94785 | 15840 ft | 263 kts | 267° |
| 2026-05-08 11:42 | -6.21083 | 107.92947 | 15840 ft | 263 kts | 267° |
| 2026-05-08 11:43 | -6.21122 | 107.91105 | 15839 ft | 264 kts | 268° |
| 2026-05-08 11:43 | -6.21109 | 107.89257 | 15841 ft | 264 kts | 270° |
| 2026-05-08 11:43 | -6.21061 | 107.87405 | 15848 ft | 265 kts | 270° |
| 2026-05-08 11:43 | -6.21013 | 107.85548 | 15842 ft | 266 kts | 270° |
| 2026-05-08 11:44 | -6.20972 | 107.83714 | 15838 ft | 266 kts | 270° |
| 2026-05-08 11:44 | -6.20931 | 107.81861 | 15850 ft | 266 kts | 270° |
| 2026-05-08 11:44 | -6.20887 | 107.79998 | 15842 ft | 266 kts | 270° |
| 2026-05-08 11:44 | -6.20846 | 107.78135 | 15840 ft | 266 kts | 270° |
| 2026-05-08 11:45 | -6.20804 | 107.76277 | 15840 ft | 266 kts | 270° |
| 2026-05-08 11:45 | -6.20761 | 107.74420 | 15845 ft | 266 kts | 270° |
| 2026-05-08 11:45 | -6.20717 | 107.72561 | 15846 ft | 266 kts | 270° |
| 2026-05-08 11:45 | -6.20675 | 107.70700 | 15844 ft | 266 kts | 270° |
| 2026-05-08 11:46 | -6.20633 | 107.68843 | 15846 ft | 266 kts | 270° |
| 2026-05-08 11:46 | -6.20589 | 107.66983 | 15845 ft | 266 kts | 270° |
| 2026-05-08 11:46 | -6.20575 | 107.65153 | 15842 ft | 264 kts | 263° |
| 2026-05-08 11:46 | -6.21077 | 107.63410 | 15847 ft | 259 kts | 247° |
| 2026-05-08 11:47 | -6.21738 | 107.61718 | 15852 ft | 260 kts | 248° |
| 2026-05-08 11:47 | -6.22332 | 107.59995 | 15859 ft | 263 kts | 251° |
| 2026-05-08 11:47 | -6.22825 | 107.58220 | 15845 ft | 264 kts | 254° |
| 2026-05-08 11:47 | -6.23269 | 107.56424 | 15800 ft | 266 kts | 254° |
| 2026-05-08 11:48 | -6.23725 | 107.54599 | 15690 ft | 271 kts | 254° |
| 2026-05-08 11:48 | -6.24191 | 107.52751 | 15570 ft | 274 kts | 254° |
| 2026-05-08 11:48 | -6.24666 | 107.50880 | 15456 ft | 277 kts | 254° |
| 2026-05-08 11:48 | -6.25151 | 107.48998 | 15336 ft | 279 kts | 254° |
| 2026-05-08 11:49 | -6.25477 | 107.47746 | 15262 ft | 280 kts | 254° |
| 2026-05-08 11:49 | -6.26137 | 107.45236 | 15272 ft | 276 kts | 254° |
| 2026-05-08 11:49 | -6.26461 | 107.44005 | 15275 ft | 274 kts | 254° |
| 2026-05-08 11:49 | -6.27114 | 107.41515 | 15009 ft | 282 kts | 254° |
| 2026-05-08 11:50 | -6.27616 | 107.39593 | 14779 ft | 285 kts | 254° |
| 2026-05-08 11:50 | -6.28124 | 107.37660 | 14550 ft | 286 kts | 254° |
| 2026-05-08 11:50 | -6.28466 | 107.36355 | 14394 ft | 286 kts | 254° |
| 2026-05-08 11:50 | -6.29139 | 107.33790 | 14100 ft | 286 kts | 254° |
| 2026-05-08 11:51 | -6.29473 | 107.32515 | 13952 ft | 283 kts | 254° |
| 2026-05-08 11:51 | -6.29970 | 107.30617 | 13714 ft | 278 kts | 254° |
| 2026-05-08 11:51 | -6.30460 | 107.28741 | 13362 ft | 277 kts | 254° |
| 2026-05-08 11:51 | -6.30949 | 107.26878 | 13007 ft | 275 kts | 254° |
| 2026-05-08 11:52 | -6.31437 | 107.25014 | 12648 ft | 274 kts | 254° |
| 2026-05-08 11:52 | -6.31922 | 107.23167 | 12304 ft | 273 kts | 254° |
| 2026-05-08 11:52 | -6.32403 | 107.21328 | 11965 ft | 271 kts | 254° |
| 2026-05-08 11:52 | -6.32877 | 107.19518 | 11627 ft | 268 kts | 254° |
| 2026-05-08 11:53 | -6.33331 | 107.17786 | 11308 ft | 245 kts | 254° |
| 2026-05-08 11:53 | -6.33750 | 107.16188 | 11020 ft | 228 kts | 254° |
| 2026-05-08 11:53 | -6.34155 | 107.14653 | 10746 ft | 230 kts | 254° |
| 2026-05-08 11:53 | -6.34581 | 107.13069 | 10469 ft | 236 kts | 254° |
| 2026-05-08 11:54 | -6.35011 | 107.11471 | 10188 ft | 238 kts | 254° |
| 2026-05-08 11:54 | -6.35439 | 107.09859 | 9911 ft | 239 kts | 254° |
| 2026-05-08 11:54 | -6.35864 | 107.08238 | 9622 ft | 239 kts | 254° |
| 2026-05-08 11:54 | -6.36280 | 107.06637 | 9315 ft | 240 kts | 254° |
| 2026-05-08 11:55 | -6.36702 | 107.05017 | 8995 ft | 240 kts | 254° |
| 2026-05-08 11:55 | -6.37125 | 107.03397 | 8689 ft | 239 kts | 254° |
| 2026-05-08 11:55 | -6.37549 | 107.01779 | 8381 ft | 239 kts | 254° |
| 2026-05-08 11:55 | -6.37973 | 107.00165 | 8084 ft | 238 kts | 254° |
| 2026-05-08 11:56 | -6.38394 | 106.98552 | 7788 ft | 237 kts | 255° |
| 2026-05-08 11:56 | -6.38814 | 106.96947 | 7488 ft | 235 kts | 254° |
| 2026-05-08 11:56 | -6.39222 | 106.95390 | 7204 ft | 224 kts | 255° |
| 2026-05-08 11:56 | -6.39619 | 106.93867 | 6928 ft | 225 kts | 255° |
| 2026-05-08 11:57 | -6.40019 | 106.92341 | 6659 ft | 226 kts | 255° |
| 2026-05-08 11:57 | -6.40421 | 106.90806 | 6364 ft | 227 kts | 255° |
| 2026-05-08 11:57 | -6.40820 | 106.89282 | 6067 ft | 225 kts | 255° |
| 2026-05-08 11:57 | -6.41211 | 106.87785 | 5773 ft | 223 kts | 255° |
| 2026-05-08 11:58 | -6.41600 | 106.86296 | 5483 ft | 209 kts | 255° |
| 2026-05-08 11:58 | -6.41954 | 106.84941 | 5208 ft | 197 kts | 255° |
| 2026-05-08 11:58 | -6.42293 | 106.83640 | 4957 ft | 188 kts | 255° |
| 2026-05-08 11:59 | -6.42946 | 106.81163 | 4468 ft | 190 kts | 255° |
| 2026-05-08 11:59 | -6.43178 | 106.79843 | 4274 ft | 194 kts | 276° |
| 2026-05-08 11:59 | -6.42566 | 106.78649 | 4094 ft | 198 kts | 317° |
| 2026-05-08 11:59 | -6.41460 | 106.77822 | 3904 ft | 194 kts | 329° |
| 2026-05-08 12:00 | -6.40315 | 106.77209 | 3722 ft | 180 kts | 335° |
| 2026-05-08 12:00 | -6.39195 | 106.76708 | 3544 ft | 178 kts | 337° |
| 2026-05-08 12:00 | -6.38034 | 106.76215 | 3373 ft | 178 kts | 338° |
| 2026-05-08 12:00 | -6.36866 | 106.75719 | 3196 ft | 187 kts | 337° |
| 2026-05-08 12:01 | -6.35697 | 106.75223 | 3015 ft | 176 kts | 338° |
| 2026-05-08 12:01 | -6.34587 | 106.74737 | 2836 ft | 171 kts | 337° |
| 2026-05-08 12:01 | -6.33485 | 106.74524 | 2640 ft | 159 kts | 13° |
| 2026-05-08 12:01 | -6.32659 | 106.75161 | 2477 ft | 147 kts | 52° |
| 2026-05-08 12:02 | -6.32106 | 106.75983 | 2334 ft | 141 kts | 58° |
| 2026-05-08 12:02 | -6.31658 | 106.76845 | 2194 ft | 142 kts | 63° |
| 2026-05-08 12:02 | -6.31263 | 106.77782 | 2039 ft | 146 kts | 68° |
| 2026-05-08 12:02 | -6.30950 | 106.78707 | 1900 ft | 134 kts | 71° |
| 2026-05-08 12:03 | -6.30688 | 106.79579 | 1760 ft | 128 kts | 72° |
| 2026-05-08 12:03 | -6.30437 | 106.80428 | 1610 ft | 125 kts | 71° |
| 2026-05-08 12:03 | -6.30197 | 106.81257 | 1517 ft | 123 kts | 72° |
| 2026-05-08 12:03 | -6.29913 | 106.82078 | 1355 ft | 125 kts | 65° |
| 2026-05-08 12:04 | -6.29555 | 106.82881 | 1182 ft | 126 kts | 63° |
| 2026-05-08 12:04 | -6.29177 | 106.83680 | 1021 ft | 127 kts | 63° |
| 2026-05-08 12:04 | -6.28793 | 106.84480 | 858 ft | 126 kts | 64° |
| 2026-05-08 12:04 | -6.28412 | 106.85260 | 672 ft | 123 kts | 65° |
| 2026-05-08 12:05 | -6.28060 | 106.86028 | 506 ft | 123 kts | 66° |
| 2026-05-08 12:05 | -6.27720 | 106.86813 | 333 ft | 122 kts | 65° |
| 2026-05-08 12:05 | -6.27366 | 106.87588 | 171 ft | 122 kts | 64° |
| 2026-05-08 12:05 | -6.27016 | 106.88335 | 93 ft | 110 kts | 66° |
| 2026-05-08 12:06 | -6.26775 | 106.88865 | 88 ft | 39 kts | 65° |
| 2026-05-08 12:06 | -6.26683 | 106.89060 | 90 ft | 27 kts | 67° |
| 2026-05-08 12:06 | -6.26625 | 106.89184 | 91 ft | 10 kts | 51° |
| 2026-05-08 12:06 | -6.26566 | 106.89188 | 88 ft | 9 kts | 329° |
| 2026-05-08 12:07 | -6.26536 | 106.89128 | 90 ft | 10 kts | 288° |
| 2026-05-08 12:07 | -6.26508 | 106.89058 | 89 ft | 11 kts | 292° |
| 2026-05-08 12:07 | -6.26499 | 106.88985 | 91 ft | 10 kts | 246° |
| 2026-05-08 12:07 | -6.26531 | 106.88918 | 88 ft | 11 kts | 243° |
| 2026-05-08 12:08 | -6.26562 | 106.88849 | 88 ft | 11 kts | 245° |
| 2026-05-08 12:08 | -6.26596 | 106.88780 | 88 ft | 11 kts | 245° |
| 2026-05-08 12:08 | -6.26588 | 106.88757 | 77 ft | 6 kts | 340° |
| 2026-05-08 12:08 | -6.26559 | 106.88747 | 90 ft | 0 kts | 341° |